Terminal Aerodrome Forecast
Issued by NWS Pendleton, OR

Home | Current Version | Previous Version | Text Only | Print | Product List | Glossary On
Versions: 1 2 3 4 5 6 7 8 9 10 11 12 13 14 15 16 17 18 19
000
FTUS46 KPDT 211140
TAFPDT
TAF
KPDT 211140Z 2112/2212 16008KT P6SM BKN070 OVC090
     FM211400 15010KT P6SM BKN060 OVC080
     FM212000 17017G27KT P6SM -RA SCT025 OVC035
     FM220300 19008G15KT P6SM VCSH SCT030 OVC045=

USA.gov is the U.S. government's official web portal to all federal, state and local government web resources and services.